Time;durP1;ratioP1;P1;durP2;ratioP2;P2;SDS_P1;SDS_P2;PMS_P1;PMS_P2;Temp;Humidity;BMP_temperature;BMP_pressure;BME280_temperature;BME280_humidity;BME280_pressure;Samples;Min_cycle;Max_cycle;Signal;HPM_P1;HPM_P2
2023/01/06 00:02:45;;;;;;;6.55;2.47;;;;;;;10.38;69.33;100328.41;10307127;28;20046;-60
2023/01/06 00:07:51;;;;;;;4.63;2.20;;;;;;;10.44;69.56;100327.22;10307655;28;21051;-60
2023/01/06 00:12:53;;;;;;;4.43;2.30;;;;;;;10.51;69.41;100323.38;10305965;28;20058;-60
2023/01/06 00:17:54;;;;;;;3.50;2.00;;;;;;;10.52;69.49;100315.44;10305150;28;20058;-61
2023/01/06 00:22:56;;;;;;;4.85;2.80;;;;;;;10.55;69.52;100311.84;10305098;28;20054;-60
2023/01/06 00:27:57;;;;;;;5.05;2.22;;;;;;;10.41;69.83;100309.09;10305276;28;20057;-60
2023/01/06 00:32:59;;;;;;;4.13;2.63;;;;;;;10.39;69.93;100308.34;10300831;28;20556;-60
2023/01/06 00:38:01;;;;;;;7.75;2.80;;;;;;;10.43;69.85;100309.88;10303553;28;20059;-61
2023/01/06 00:43:04;;;;;;;4.88;2.42;;;;;;;10.40;70.00;100304.78;10301310;28;20561;-61
2023/01/06 00:48:06;;;;;;;4.13;2.33;;;;;;;10.36;70.04;100298.03;10298972;28;20192;-61
2023/01/06 00:53:08;;;;;;;6.22;2.47;;;;;;;10.38;69.95;100301.41;10303650;28;20058;-61
2023/01/06 00:58:09;;;;;;;7.55;2.60;;;;;;;10.41;70.05;100304.72;10305109;28;20054;-61
2023/01/06 01:03:11;;;;;;;4.38;2.45;;;;;;;10.33;70.15;100301.69;10339530;28;20053;-61
2023/01/06 01:08:13;;;;;;;5.05;2.65;;;;;;;10.32;70.31;100312.19;10342290;28;20049;-60
2023/01/06 01:13:14;;;;;;;5.38;2.42;;;;;;;10.32;70.24;100299.97;10342847;28;20057;-61
2023/01/06 01:18:16;;;;;;;5.55;2.10;;;;;;;10.30;70.17;100299.22;10343667;28;20046;-60
2023/01/06 01:23:17;;;;;;;4.18;2.50;;;;;;;10.31;70.34;100307.91;10341974;28;20050;-61
2023/01/06 01:28:19;;;;;;;5.05;2.10;;;;;;;10.23;70.79;100310.09;10341548;28;20422;-60
2023/01/06 01:33:21;;;;;;;3.30;2.00;;;;;;;10.15;71.18;100312.25;10337210;28;20418;-61
2023/01/06 01:38:25;;;;;;;3.17;1.90;;;;;;;10.28;71.15;100319.38;10343028;28;20052;-61
2023/01/06 01:43:47;;;;;;;4.55;2.13;;;;;;;10.27;70.85;100314.22;10339282;28;20056;-60
2023/01/06 01:48:51;;;;;;;3.45;1.65;;;;;;;10.33;70.81;100313.91;10342988;28;20557;-60
2023/01/06 01:53:57;;;;;;;3.25;1.80;;;;;;;10.25;71.21;100326.53;10341177;28;20583;-61
2023/01/06 01:59:12;;;;;;;6.25;1.83;;;;;;;10.21;71.48;100322.38;10342468;28;20057;-60
2023/01/06 02:04:16;;;;;;;3.53;1.70;;;;;;;10.11;71.86;100323.78;10339749;28;20133;-60
2023/01/06 02:09:26;;;;;;;4.95;1.35;;;;;;;10.10;71.89;100309.88;10342982;28;20414;-60
2023/01/06 02:14:28;;;;;;;2.15;1.30;;;;;;;10.15;71.50;100292.19;10339389;28;20050;-60
2023/01/06 02:20:17;;;;;;;2.70;1.20;;;;;;;10.17;71.46;100290.34;10340695;28;20384;-60
2023/01/06 02:25:45;;;;;;;2.72;1.10;;;;;;;10.14;71.32;100287.03;10341471;28;20525;-60
2023/01/06 02:31:12;;;;;;;1.30;1.05;;;;;;;10.23;71.03;100284.78;10346863;28;20413;-61
2023/01/06 02:36:28;;;;;;;1.52;0.98;;;;;;;10.16;70.59;100280.81;10349699;28;20077;-61
2023/01/06 02:41:45;;;;;;;1.45;0.90;;;;;;;10.01;70.86;100278.16;10348626;28;20536;-61
2023/01/06 02:47:05;;;;;;;2.28;0.80;;;;;;;10.07;70.39;100270.84;10344893;28;20049;-60
2023/01/06 02:52:39;;;;;;;1.65;0.90;;;;;;;10.07;69.44;100260.41;10346512;28;20045;-60
2023/01/06 02:57:49;;;;;;;1.08;0.73;;;;;;;10.15;68.82;100263.44;10349874;28;20045;-60
2023/01/06 03:02:58;;;;;;;2.67;0.85;;;;;;;10.09;67.96;100260.31;10351224;28;20046;-60
2023/01/06 03:08:04;;;;;;;1.45;0.50;;;;;;;10.01;67.87;100258.06;10355339;28;20045;-61
2023/01/06 03:13:14;;;;;;;1.08;0.60;;;;;;;10.06;67.17;100253.47;10356626;28;20049;-60
2023/01/06 03:18:16;;;;;;;1.67;0.70;;;;;;;10.07;67.21;100239.47;10353573;28;20058;-60
2023/01/06 03:23:19;;;;;;;0.68;0.60;;;;;;;10.14;66.70;100234.75;10352364;28;20045;-61
2023/01/06 03:28:21;;;;;;;2.85;0.80;;;;;;;10.11;65.86;100235.78;10355060;28;20068;-61
2023/01/06 03:33:45;;;;;;;0.25;0.22;;;;;;;9.94;64.77;100227.97;10354207;28;20056;-60
2023/01/06 03:39:05;;;;;;;1.10;0.52;;;;;;;10.00;65.10;100227.66;10353429;28;20644;-60
2023/01/06 03:44:13;;;;;;;1.20;0.40;;;;;;;10.04;64.54;100233.56;10350212;28;20062;-60
2023/01/06 03:49:21;;;;;;;0.90;0.50;;;;;;;10.02;63.79;100238.03;10353310;28;20485;-60
2023/01/06 03:54:34;;;;;;;1.70;0.68;;;;;;;10.03;62.40;100248.41;10354799;28;20049;-60
2023/01/06 03:59:41;;;;;;;1.75;0.80;;;;;;;10.10;62.76;100252.38;10352850;28;20054;-60
2023/01/06 04:04:43;;;;;;;1.98;0.50;;;;;;;10.14;62.68;100240.84;10348176;28;20123;-61
2023/01/06 04:09:45;;;;;;;1.90;0.60;;;;;;;10.12;62.83;100241.84;10345883;28;20042;-60
2023/01/06 04:14:46;;;;;;;1.35;0.70;;;;;;;10.04;61.69;100246.63;10344073;28;20049;-60
2023/01/06 04:19:48;;;;;;;0.70;0.70;;;;;;;10.05;61.70;100250.94;10346180;28;20104;-60
2023/01/06 04:24:49;;;;;;;2.58;0.95;;;;;;;10.01;61.45;100252.03;10343534;28;20045;-61
2023/01/06 04:29:51;;;;;;;1.42;0.70;;;;;;;10.10;60.99;100254.13;10343739;28;20050;-61
2023/01/06 04:34:53;;;;;;;2.30;0.63;;;;;;;10.02;61.16;100241.47;10343856;28;20062;-60
2023/01/06 04:39:54;;;;;;;1.27;0.70;;;;;;;10.11;61.09;100227.09;10343630;28;20049;-60
2023/01/06 04:44:56;;;;;;;2.42;0.90;;;;;;;10.02;60.86;100227.56;10345946;28;20045;-60
2023/01/06 04:49:58;;;;;;;2.63;0.70;;;;;;;9.92;60.71;100221.13;10345089;28;20514;-60
2023/01/06 04:54:59;;;;;;;1.17;0.60;;;;;;;9.83;60.51;100232.09;10343843;28;20438;-61
2023/01/06 05:00:01;;;;;;;3.78;0.85;;;;;;;9.82;60.65;100235.59;10344665;28;20084;-60
2023/01/06 05:05:03;;;;;;;4.25;1.13;;;;;;;9.90;60.34;100225.59;10344732;28;20513;-61
2023/01/06 05:10:06;;;;;;;1.85;0.82;;;;;;;9.81;60.37;100229.53;10343555;28;20061;-60
2023/01/06 05:15:08;;;;;;;3.75;0.80;;;;;;;9.94;60.28;100221.91;10343750;28;20058;-61
2023/01/06 05:20:10;;;;;;;2.03;0.90;;;;;;;9.96;60.04;100225.28;10345199;28;20050;-61
2023/01/06 05:25:12;;;;;;;1.33;0.73;;;;;;;9.97;59.84;100213.91;10344286;28;20049;-60
2023/01/06 05:30:14;;;;;;;3.85;1.30;;;;;;;9.91;59.33;100227.31;10344086;28;20414;-61
2023/01/06 05:35:15;;;;;;;8.23;5.13;;;;;;;9.91;58.64;100227.31;10341914;28;20229;-61
2023/01/06 05:40:17;;;;;;;6.88;4.30;;;;;;;9.95;58.75;100221.00;10343195;28;20057;-61
2023/01/06 05:45:18;;;;;;;4.70;1.25;;;;;;;9.99;58.71;100225.94;10343982;28;20058;-61
2023/01/06 05:50:20;;;;;;;2.05;0.88;;;;;;;9.93;58.64;100215.81;10343962;28;20052;-61
2023/01/06 05:55:22;;;;;;;2.80;1.00;;;;;;;9.99;58.73;100217.28;10343851;28;20070;-61
2023/01/06 06:00:23;;;;;;;3.70;1.30;;;;;;;9.89;59.01;100213.47;10342991;28;20525;-61
2023/01/06 06:05:25;;;;;;;2.88;1.13;;;;;;;9.88;59.24;100219.59;10342597;28;20067;-61
2023/01/06 06:10:27;;;;;;;1.77;1.20;;;;;;;9.83;59.21;100230.28;10342951;28;20056;-60
2023/01/06 06:15:28;;;;;;;6.28;1.27;;;;;;;9.74;59.85;100222.09;10342852;28;20045;-61
2023/01/06 06:20:30;;;;;;;3.28;1.13;;;;;;;9.87;59.49;100228.38;10342386;28;20046;-60
2023/01/06 06:25:31;;;;;;;3.85;1.10;;;;;;;9.87;59.70;100238.84;10340623;28;20050;-61
2023/01/06 06:30:33;;;;;;;2.20;1.00;;;;;;;9.72;60.10;100229.16;10342579;28;20049;-61
2023/01/06 06:35:35;;;;;;;3.15;0.90;;;;;;;9.76;59.67;100230.69;10341921;28;20054;-61
2023/01/06 06:40:37;;;;;;;3.90;1.10;;;;;;;9.85;59.94;100217.19;10342270;28;20077;-61
2023/01/06 06:45:38;;;;;;;2.47;0.93;;;;;;;9.91;59.86;100211.63;10342008;28;20490;-61
2023/01/06 06:50:40;;;;;;;3.92;1.10;;;;;;;9.80;59.82;100219.16;10341869;28;20050;-61
2023/01/06 06:55:42;;;;;;;2.35;1.10;;;;;;;9.73;60.26;100216.03;10342774;28;20062;-61
2023/01/06 07:00:43;;;;;;;3.08;1.10;;;;;;;9.67;60.72;100215.53;10340494;28;20084;-60
2023/01/06 07:05:47;;;;;;;3.28;1.10;;;;;;;9.72;60.70;100223.94;10341616;28;20416;-60
2023/01/06 07:10:49;;;;;;;2.78;1.30;;;;;;;9.79;60.69;100239.22;10340840;28;20049;-60
2023/01/06 07:15:50;;;;;;;4.85;1.20;;;;;;;9.83;60.69;100227.69;10341598;28;20643;-61
2023/01/06 07:20:52;;;;;;;3.75;1.40;;;;;;;9.89;60.62;100223.94;10349069;28;20054;-61
2023/01/06 07:25:57;;;;;;;5.30;1.10;;;;;;;9.91;60.39;100233.34;10347512;28;20184;-61
2023/01/06 07:30:59;;;;;;;5.20;1.35;;;;;;;9.88;60.44;100240.50;10348691;28;20046;-60
2023/01/06 07:36:01;;;;;;;2.03;1.08;;;;;;;9.97;60.46;100242.66;10349324;28;20506;-61
2023/01/06 07:41:02;;;;;;;3.25;1.17;;;;;;;10.02;60.13;100243.25;10347317;28;20433;-61
2023/01/06 07:46:04;;;;;;;4.03;1.20;;;;;;;10.10;60.07;100257.59;10342194;28;20049;-62
2023/01/06 07:51:06;;;;;;;3.63;1.30;;;;;;;10.13;60.01;100254.00;10344459;28;20057;-61
2023/01/06 07:56:08;;;;;;;2.65;1.45;;;;;;;10.06;60.24;100250.84;10340361;28;20057;-62
2023/01/06 08:01:10;;;;;;;2.92;1.38;;;;;;;10.10;59.77;100235.84;10343738;28;20054;-61
2023/01/06 08:06:12;;;;;;;5.40;2.60;;;;;;;9.96;60.05;100239.19;10343379;28;20061;-62
2023/01/06 08:11:14;;;;;;;4.72;1.52;;;;;;;10.03;60.02;100234.50;10345604;28;20457;-62
2023/01/06 08:16:15;;;;;;;3.95;1.70;;;;;;;10.13;59.68;100233.09;10339138;28;20054;-62
2023/01/06 08:21:17;;;;;;;4.20;1.48;;;;;;;10.07;59.64;100225.56;10346704;28;20060;-61
2023/01/06 08:26:19;;;;;;;4.13;1.50;;;;;;;10.06;59.67;100236.94;10338985;28;20054;-61
2023/01/06 08:31:21;;;;;;;3.28;1.20;;;;;;;10.15;59.52;100241.69;10346474;28;20065;-61
2023/01/06 08:36:24;;;;;;;3.28;1.10;;;;;;;10.24;59.54;100241.19;10343717;28;20085;-61
2023/01/06 08:41:25;;;;;;;2.33;1.13;;;;;;;10.20;59.65;100245.72;10342803;28;20049;-61
2023/01/06 08:46:27;;;;;;;5.45;1.50;;;;;;;10.23;59.34;100244.72;10341186;28;20049;-61
2023/01/06 08:51:29;;;;;;;2.67;1.40;;;;;;;10.19;59.49;100241.44;10342782;28;20528;-61
2023/01/06 08:56:31;;;;;;;2.83;1.00;;;;;;;10.21;59.35;100250.06;10339969;28;20054;-61
2023/01/06 09:01:34;;;;;;;1.70;0.70;;;;;;;10.22;59.28;100259.56;10342075;28;20651;-61
2023/01/06 09:06:37;;;;;;;2.60;1.08;;;;;;;10.10;59.61;100260.22;10341585;28;20104;-61
2023/01/06 09:11:44;;;;;;;1.85;0.90;;;;;;;10.31;59.24;100239.94;10345036;28;20053;-61
2023/01/06 09:16:47;;;;;;;2.25;1.15;;;;;;;10.37;59.08;100245.69;10339422;28;20428;-61
2023/01/06 09:21:49;;;;;;;2.40;1.20;;;;;;;10.34;58.90;100256.28;10337462;28;20107;-62
2023/01/06 09:26:50;;;;;;;3.35;1.60;;;;;;;10.36;59.14;100253.59;10340821;28;20076;-61
2023/01/06 09:31:52;;;;;;;1.67;1.10;;;;;;;10.33;59.29;100259.00;10343146;28;20112;-61
2023/01/06 09:36:54;;;;;;;3.63;1.70;;;;;;;10.15;59.79;100273.03;10340419;28;20073;-61
2023/01/06 09:42:20;;;;;;;1.48;0.95;;;;;;;9.97;59.83;100276.63;10341480;28;20041;-60
2023/01/06 09:47:35;;;;;;;1.67;0.75;;;;;;;10.16;59.46;100270.34;10340447;28;20061;-60
2023/01/06 09:52:50;;;;;;;2.38;1.10;;;;;;;10.15;59.64;100265.22;10342184;28;20053;-60
2023/01/06 09:57:59;;;;;;;1.85;0.90;;;;;;;10.14;59.77;100263.50;10340220;28;20540;-60
2023/01/06 10:03:02;;;;;;;1.88;1.02;;;;;;;10.22;59.69;100270.03;10339487;28;20058;-60
2023/01/06 10:08:12;;;;;;;5.97;1.40;;;;;;;10.23;59.83;100263.03;10340879;28;20062;-61
2023/01/06 10:13:52;;;;;;;2.30;0.70;;;;;;;9.99;60.04;100261.72;10338921;28;21214;-61
2023/01/06 10:19:14;;;;;;;0.80;0.80;;;;;;;10.05;60.20;100258.78;10337805;28;20046;-61
2023/01/06 10:24:41;;;;;;;2.50;1.40;;;;;;;10.14;59.95;100271.34;10335661;28;20061;-61
2023/01/06 10:29:43;;;;;;;1.40;0.80;;;;;;;10.17;59.57;100268.59;10339030;28;20054;-61
2023/01/06 10:34:48;;;;;;;1.65;0.80;;;;;;;10.11;60.08;100246.25;10336748;28;20057;-61
2023/01/06 10:40:02;;;;;;;0.90;0.63;;;;;;;10.10;60.23;100248.91;10340241;28;20046;-61
2023/01/06 10:45:04;;;;;;;1.35;0.77;;;;;;;10.25;59.94;100242.88;10337369;28;20057;-61
2023/01/06 10:50:10;;;;;;;2.35;1.50;;;;;;;10.22;60.07;100248.25;10342650;28;20053;-61
2023/01/06 10:55:24;;;;;;;1.45;1.15;;;;;;;10.33;59.38;100251.16;10340696;28;20630;-61
2023/01/06 11:00:26;;;;;;;2.28;1.10;;;;;;;10.44;59.65;100254.03;10344701;28;20053;-61
2023/01/06 11:05:30;;;;;;;1.60;1.10;;;;;;;10.61;59.30;100251.34;10345065;28;20072;-61
2023/01/06 11:10:52;;;;;;;4.30;2.05;;;;;;;10.66;58.55;100244.09;10344372;28;20046;-61
2023/01/06 11:15:55;;;;;;;3.47;2.05;;;;;;;10.93;58.67;100246.97;10343323;28;20426;-61
2023/01/06 11:21:05;;;;;;;1.92;0.82;;;;;;;10.78;58.64;100238.19;10346753;28;20649;-61
2023/01/06 11:26:22;;;;;;;3.78;1.75;;;;;;;10.66;58.83;100238.03;10344182;28;20054;-61
2023/01/06 11:31:25;;;;;;;2.50;1.20;;;;;;;10.69;59.01;100236.06;10344774;28;20088;-60
2023/01/06 11:36:31;;;;;;;3.00;1.48;;;;;;;10.58;58.81;100230.59;10341919;28;20046;-60
2023/01/06 11:41:39;;;;;;;3.40;1.30;;;;;;;10.56;59.18;100226.38;10345106;28;20524;-60
2023/01/06 11:46:51;;;;;;;8.90;4.35;;;;;;;10.44;59.44;100226.09;10334483;28;20639;-62
2023/01/06 11:52:17;;;;;;;1.27;0.90;;;;;;;10.47;59.43;100225.09;10341579;28;20049;-61
2023/01/06 11:57:29;;;;;;;1.27;0.90;;;;;;;10.72;58.98;100235.91;10340228;28;20168;-62
2023/01/06 12:03:02;;;;;;;1.20;0.75;;;;;;;10.90;58.56;100221.81;10339211;28;20056;-61
2023/01/06 12:08:21;;;;;;;2.45;0.95;;;;;;;10.99;58.11;100218.66;10341786;28;20057;-61
2023/01/06 12:13:24;;;;;;;1.77;0.90;;;;;;;10.96;58.60;100225.84;10331730;28;20667;-62
2023/01/06 12:18:32;;;;;;;1.08;0.90;;;;;;;11.14;58.50;100232.69;10337109;28;20068;-62
2023/01/06 12:23:38;;;;;;;1.98;1.10;;;;;;;11.19;58.29;100226.22;10341068;28;20058;-62
2023/01/06 12:28:44;;;;;;;5.00;2.63;;;;;;;11.09;58.30;100227.69;10343667;28;20054;-62
2023/01/06 12:34:00;;;;;;;1.80;1.30;;;;;;;11.31;57.72;100216.84;10338510;28;20041;-62
2023/01/06 12:39:34;;;;;;;1.83;1.10;;;;;;;11.64;56.66;100230.56;10343680;28;20065;-61
2023/01/06 12:44:45;;;;;;;1.98;1.30;;;;;;;11.77;56.10;100217.56;10337577;28;20512;-62
2023/01/06 12:50:00;;;;;;;1.33;0.90;;;;;;;12.05;56.57;100210.56;10342876;28;20050;-62
2023/01/06 12:55:04;;;;;;;1.70;0.90;;;;;;;12.00;56.44;100217.03;10332541;28;20057;-62
2023/01/06 13:00:16;;;;;;;1.13;0.90;;;;;;;12.08;56.05;100214.78;10339018;28;20046;-62
2023/01/06 13:05:43;;;;;;;1.02;0.85;;;;;;;12.03;55.77;100214.22;10336891;28;20587;-62
2023/01/06 13:10:57;;;;;;;1.40;0.98;;;;;;;11.94;56.16;100227.91;10336423;28;20168;-61
2023/01/06 13:16:13;;;;;;;1.15;0.80;;;;;;;12.05;56.24;100214.97;10337997;28;20056;-62
2023/01/06 13:21:21;;;;;;;0.68;0.52;;;;;;;11.98;56.07;100214.53;10341748;28;20050;-61
2023/01/06 13:26:43;;;;;;;1.45;0.57;;;;;;;11.88;56.64;100217.78;10334865;28;20050;-62
2023/01/06 13:31:54;;;;;;;0.85;0.47;;;;;;;11.82;56.61;100213.78;10340429;28;20057;-61
2023/01/06 13:37:14;;;;;;;0.50;0.50;;;;;;;11.54;56.71;100210.28;10339779;28;20149;-61
2023/01/06 13:42:21;;;;;;;0.70;0.47;;;;;;;11.60;57.10;100213.34;10341276;28;20054;-62
2023/01/06 13:47:24;;;;;;;1.25;0.60;;;;;;;11.47;57.41;100225.50;10342745;28;20053;-61
2023/01/06 13:52:29;;;;;;;0.60;0.60;;;;;;;11.36;57.43;100217.41;10343172;28;20157;-61
2023/01/06 13:57:36;;;;;;;1.92;0.85;;;;;;;11.34;57.63;100216.66;10342889;28;20053;-62
2023/01/06 14:02:38;;;;;;;1.73;1.00;;;;;;;11.35;57.86;100217.50;10339931;28;20344;-61
2023/01/06 14:07:47;;;;;;;0.82;0.82;;;;;;;11.27;57.91;100216.16;10342351;28;20140;-61
2023/01/06 14:12:49;;;;;;;1.27;1.00;;;;;;;11.32;58.10;100227.22;10340297;28;20046;-62
2023/01/06 14:17:51;;;;;;;0.90;0.75;;;;;;;11.35;57.93;100222.75;10342320;28;20060;-61
2023/01/06 14:22:57;;;;;;;2.45;0.80;;;;;;;11.21;58.38;100221.75;10345055;28;20052;-61
2023/01/06 14:27:59;;;;;;;1.73;0.90;;;;;;;11.03;58.86;100232.44;10351229;28;20069;-61
2023/01/06 14:33:03;;;;;;;1.45;0.80;;;;;;;11.16;58.55;100228.19;10351210;28;20049;-61
2023/01/06 14:38:21;;;;;;;0.63;0.63;;;;;;;11.07;58.91;100224.31;10353069;28;20391;-61
2023/01/06 14:43:36;;;;;;;1.63;0.90;;;;;;;11.07;58.95;100226.94;10352179;28;20124;-61
2023/01/06 14:48:44;;;;;;;1.63;0.70;;;;;;;11.07;59.12;100234.78;10352364;28;20056;-61
2023/01/06 14:53:56;;;;;;;0.50;0.50;;;;;;;10.93;59.18;100246.97;10351513;28;20062;-62
2023/01/06 14:59:21;;;;;;;0.75;0.65;;;;;;;10.81;59.57;100243.25;10349717;28;20514;-61
2023/01/06 15:04:34;;;;;;;0.70;0.70;;;;;;;10.84;59.58;100240.47;10351379;28;20077;-61
2023/01/06 15:09:35;;;;;;;1.38;0.90;;;;;;;10.95;59.48;100243.31;10352246;28;20058;-61
2023/01/06 15:14:37;;;;;;;1.55;0.90;;;;;;;10.95;59.31;100245.94;10345487;28;20473;-61
2023/01/06 15:19:42;;;;;;;1.33;1.08;;;;;;;10.90;59.45;100252.34;10351014;28;20335;-61
2023/01/06 15:24:44;;;;;;;4.03;0.95;;;;;;;11.02;59.61;100252.50;10339519;28;20136;-60
2023/01/06 15:29:52;;;;;;;1.15;0.98;;;;;;;11.03;59.38;100259.41;10346677;28;20057;-61
2023/01/06 15:34:56;;;;;;;0.95;0.85;;;;;;;11.01;59.65;100260.47;10350554;28;20500;-61
2023/01/06 15:39:58;;;;;;;1.00;0.80;;;;;;;10.88;59.87;100259.44;10347449;28;20069;-61
2023/01/06 15:45:02;;;;;;;0.82;0.80;;;;;;;10.80;59.91;100254.66;10347552;28;20046;-61
2023/01/06 15:50:08;;;;;;;0.93;0.77;;;;;;;10.86;59.98;100249.06;10349169;28;20108;-61
2023/01/06 15:55:25;;;;;;;0.82;0.70;;;;;;;10.85;59.80;100246.50;10349709;28;20069;-61
2023/01/06 16:00:35;;;;;;;1.05;0.90;;;;;;;10.78;60.04;100253.88;10348783;28;20232;-61
2023/01/06 16:05:39;;;;;;;0.73;0.70;;;;;;;10.81;59.97;100258.94;10347114;28;20093;-61
2023/01/06 16:10:41;;;;;;;1.20;0.90;;;;;;;10.87;59.89;100260.34;10347364;28;20056;-61
2023/01/06 16:16:00;;;;;;;0.80;0.63;;;;;;;10.79;59.95;100266.03;10347414;28;20058;-61
2023/01/06 16:21:21;;;;;;;0.82;0.70;;;;;;;10.53;60.65;100243.06;10347444;28;20054;-61
2023/01/06 16:26:26;;;;;;;3.38;2.33;;;;;;;10.63;60.46;100259.94;10348055;28;20046;-61
2023/01/06 16:31:31;;;;;;;6.45;5.07;;;;;;;10.73;60.49;100257.66;10342252;28;20053;-61
2023/01/06 16:36:33;;;;;;;2.67;1.70;;;;;;;10.70;60.46;100261.31;10343408;28;20145;-61
2023/01/06 16:41:37;;;;;;;2.30;1.20;;;;;;;10.62;60.66;100242.59;10339764;28;20050;-61
2023/01/06 16:46:38;;;;;;;1.50;1.00;;;;;;;10.59;60.80;100244.50;10344448;28;20065;-60
2023/01/06 16:51:43;;;;;;;2.00;1.10;;;;;;;10.61;60.81;100253.09;10336675;28;20046;-61
2023/01/06 16:56:46;;;;;;;1.85;0.98;;;;;;;10.56;61.01;100258.63;10342662;28;20060;-61
2023/01/06 17:01:47;;;;;;;1.02;0.90;;;;;;;10.65;60.71;100258.09;10332647;28;20515;-61
2023/01/06 17:06:49;;;;;;;1.85;0.82;;;;;;;10.63;60.87;100253.88;10343482;28;20045;-60
2023/01/06 17:11:51;;;;;;;10.90;7.97;;;;;;;10.57;61.19;100254.19;10341607;28;20929;-61
2023/01/06 17:16:54;;;;;;;2.35;1.33;;;;;;;10.57;61.25;100255.06;10342480;28;20168;-61
2023/01/06 17:22:03;;;;;;;9.13;5.53;;;;;;;10.55;60.99;100256.06;10341606;28;20060;-61
2023/01/06 17:27:26;;;;;;;22.05;13.30;;;;;;;10.49;61.32;100259.84;10340906;28;20528;-61
2023/01/06 17:32:33;;;;;;;5.47;3.20;;;;;;;10.43;61.56;100266.28;10340742;28;20048;-61
2023/01/06 17:37:36;;;;;;;5.68;4.00;;;;;;;10.50;61.39;100270.22;10339843;28;20061;-61
2023/01/06 17:42:41;;;;;;;5.55;4.30;;;;;;;10.52;61.40;100271.94;10341255;28;20052;-61
2023/01/06 17:47:49;;;;;;;8.07;5.00;;;;;;;10.60;61.33;100283.69;10334733;28;20050;-60
2023/01/06 17:58:20;;;;;;;5.88;4.00;;;;;;;10.60;61.29;100281.06;10344175;28;20057;-60
2023/01/06 18:03:32;;;;;;;7.60;5.07;;;;;;;10.56;61.51;100279.53;10337798;28;20085;-61
2023/01/06 18:08:36;;;;;;;4.25;1.60;;;;;;;10.66;60.94;100288.56;10336682;28;20054;-61
2023/01/06 18:13:40;;;;;;;4.70;3.08;;;;;;;10.61;61.35;100285.34;10337690;28;20045;-61
2023/01/06 18:18:42;;;;;;;5.22;3.65;;;;;;;10.59;61.47;100289.81;10341365;28;20112;-61
2023/01/06 18:23:46;;;;;;;7.03;4.68;;;;;;;10.54;61.54;100284.00;10339210;28;20140;-61
2023/01/06 18:28:48;;;;;;;5.53;3.60;;;;;;;10.63;61.48;100287.88;10339335;28;20052;-61
2023/01/06 18:33:50;;;;;;;4.38;2.75;;;;;;;10.66;61.46;100295.56;10326869;28;20081;-61
2023/01/06 18:38:52;;;;;;;6.65;4.07;;;;;;;10.66;61.47;100299.03;10336157;28;20054;-61
2023/01/06 18:43:56;;;;;;;8.15;4.97;;;;;;;10.73;61.32;100297.75;10330781;28;20053;-61
2023/01/06 18:48:58;;;;;;;7.68;4.70;;;;;;;10.84;61.07;100305.03;10334867;28;20049;-61
2023/01/06 18:54:00;;;;;;;9.98;6.00;;;;;;;10.81;61.00;100306.03;10333130;28;20469;-61
2023/01/06 18:59:11;;;;;;;7.95;4.60;;;;;;;10.80;61.17;100300.88;10336826;28;20854;-61
2023/01/06 19:04:21;;;;;;;8.48;5.07;;;;;;;10.80;61.25;100304.34;10318318;28;20049;-61
2023/01/06 19:09:38;;;;;;;8.20;4.70;;;;;;;10.85;61.11;100301.47;10340129;28;20042;-61
2023/01/06 19:14:42;;;;;;;5.03;2.47;;;;;;;10.90;60.91;100300.31;10347996;28;20042;-61
2023/01/06 19:19:44;;;;;;;7.82;1.20;;;;;;;10.90;60.94;100284.59;10337592;28;20049;-61
2023/01/06 19:24:48;;;;;;;8.38;4.43;;;;;;;10.88;61.19;100296.06;10336645;28;20050;-61
2023/01/06 19:29:53;;;;;;;6.00;2.80;;;;;;;10.85;61.02;100281.38;10331004;28;20041;-61
2023/01/06 19:34:55;;;;;;;4.13;2.40;;;;;;;10.75;61.07;100279.34;10345947;28;20057;-61
2023/01/06 19:39:56;;;;;;;5.65;2.63;;;;;;;10.67;61.33;100268.47;10344443;28;20413;-61
2023/01/06 19:45:08;;;;;;;6.88;3.80;;;;;;;10.61;61.50;100277.50;10343420;28;20213;-61
2023/01/06 19:50:17;;;;;;;5.45;3.00;;;;;;;10.51;61.77;100281.53;10344736;28;20053;-61
2023/01/06 19:55:25;;;;;;;5.03;2.60;;;;;;;10.48;61.92;100281.72;10344964;28;20065;-61
2023/01/06 20:00:37;;;;;;;6.65;3.03;;;;;;;10.47;62.04;100270.41;10346019;28;20073;-61
2023/01/06 20:05:39;;;;;;;6.43;3.08;;;;;;;10.47;62.11;100274.78;10343658;28;20054;-61
2023/01/06 20:10:40;;;;;;;6.05;3.17;;;;;;;10.58;61.82;100269.84;10347464;28;20050;-61
2023/01/06 20:15:42;;;;;;;4.25;1.90;;;;;;;10.63;61.69;100273.03;10348305;28;20061;-61
2023/01/06 20:20:44;;;;;;;4.97;2.50;;;;;;;10.50;61.88;100266.78;10341087;28;20452;-61
2023/01/06 20:25:45;;;;;;;4.85;2.47;;;;;;;10.56;61.76;100269.06;10342969;28;20096;-61
2023/01/06 20:30:47;;;;;;;2.83;1.92;;;;;;;10.58;61.73;100267.22;10341970;28;20045;-61
2023/01/06 20:35:49;;;;;;;1.63;1.10;;;;;;;10.56;61.68;100273.47;10340860;28;20634;-61
2023/01/06 20:40:50;;;;;;;6.75;4.85;;;;;;;10.36;62.05;100272.75;10343715;28;20560;-61
2023/01/06 20:45:52;;;;;;;4.25;3.00;;;;;;;10.30;62.29;100285.28;10343714;28;20045;-61
2023/01/06 20:50:55;;;;;;;4.00;2.30;;;;;;;10.39;61.92;100275.22;10341639;28;20092;-60
2023/01/06 20:55:56;;;;;;;9.07;5.95;;;;;;;10.42;61.87;100287.25;10340873;28;20049;-61
2023/01/06 21:00:58;;;;;;;3.00;1.60;;;;;;;10.45;62.14;100271.41;10339601;28;20562;-61
2023/01/06 21:06:00;;;;;;;1.98;1.30;;;;;;;10.49;61.97;100272.94;10341940;28;20111;-61
2023/01/06 21:11:01;;;;;;;1.60;1.10;;;;;;;10.57;61.82;100281.22;10343181;28;20528;-60
2023/01/06 21:16:03;;;;;;;1.55;1.10;;;;;;;10.58;61.72;100282.06;10342020;28;20109;-60
2023/01/06 21:21:05;;;;;;;1.95;1.10;;;;;;;10.68;61.45;100278.03;10341948;28;20064;-61
2023/01/06 21:26:07;;;;;;;2.28;1.40;;;;;;;10.66;61.54;100275.50;10342175;28;20054;-60
2023/01/06 21:31:08;;;;;;;2.90;1.55;;;;;;;10.66;61.49;100277.25;10341565;28;20058;-60
2023/01/06 21:36:10;;;;;;;3.90;2.25;;;;;;;10.73;61.27;100281.22;10342303;28;20056;-60
2023/01/06 21:46:33;;;;;;;4.27;2.90;;;;;;;10.70;61.55;100270.94;10339728;28;20045;-61
2023/01/06 21:51:35;;;;;;;3.85;2.35;;;;;;;10.74;61.24;100273.31;10340693;28;20045;-60
2023/01/06 21:56:37;;;;;;;4.38;3.35;;;;;;;10.67;61.34;100281.53;10337990;28;20120;-61
2023/01/06 22:01:38;;;;;;;3.95;2.30;;;;;;;10.71;61.26;100283.06;10342006;28;20057;-60
2023/01/06 22:06:42;;;;;;;3.50;2.50;;;;;;;10.67;61.29;100287.63;10341821;28;20046;-60
2023/01/06 22:11:46;;;;;;;4.35;2.28;;;;;;;10.69;61.48;100285.78;10340850;28;20053;-61
2023/01/06 22:16:47;;;;;;;2.90;1.80;;;;;;;10.71;61.40;100283.91;10339279;28;20065;-60
2023/01/06 22:21:49;;;;;;;3.35;1.40;;;;;;;10.69;61.49;100288.38;10341784;28;20042;-60
2023/01/06 22:26:51;;;;;;;1.60;1.20;;;;;;;10.74;61.51;100283.75;10341482;28;20041;-60
2023/01/06 22:31:52;;;;;;;1.48;1.10;;;;;;;10.76;61.34;100281.91;10342281;28;20089;-60
2023/01/06 22:36:54;;;;;;;3.53;1.60;;;;;;;10.77;61.14;100288.81;10342941;28;20080;-60
2023/01/06 22:41:56;;;;;;;2.35;1.33;;;;;;;10.76;61.37;100289.75;10342215;28;20056;-60
2023/01/06 22:46:57;;;;;;;2.50;1.40;;;;;;;10.80;60.96;100298.28;10345906;28;20045;-60
2023/01/06 22:51:59;;;;;;;3.13;1.90;;;;;;;10.83;60.57;100293.72;10350800;28;20049;-60
2023/01/06 22:57:01;;;;;;;1.55;1.13;;;;;;;10.86;60.70;100288.31;10349194;28;20049;-60
2023/01/06 23:02:02;;;;;;;2.30;1.27;;;;;;;10.79;60.91;100286.97;10349915;28;20054;-60
2023/01/06 23:07:04;;;;;;;2.85;1.40;;;;;;;10.78;60.91;100293.13;10350226;28;20046;-60
2023/01/06 23:12:06;;;;;;;3.22;1.80;;;;;;;10.73;60.77;100289.06;10349762;28;20061;-60
2023/01/06 23:17:10;;;;;;;3.53;1.77;;;;;;;10.72;60.73;100293.47;10349665;28;20060;-60
2023/01/06 23:22:13;;;;;;;3.78;1.50;;;;;;;10.54;61.07;100283.16;10347399;28;20046;-59
2023/01/06 23:27:14;;;;;;;2.50;1.60;;;;;;;10.41;61.51;100278.59;10348727;28;20060;-60
2023/01/06 23:32:16;;;;;;;2.00;1.20;;;;;;;10.42;61.64;100276.78;10348446;28;20054;-59
2023/01/06 23:37:18;;;;;;;3.72;1.48;;;;;;;10.48;61.53;100272.09;10348633;28;20054;-60
2023/01/06 23:42:20;;;;;;;4.65;2.72;;;;;;;10.52;61.57;100264.09;10348073;28;20076;-59